Darstellungsparameter: Aktuell verwendete Einstellungen:
Skalierung der Graphiken ... ?
xyx+y,   Skalierungsfaktor:      Skalierung: Modus: x, Faktor: 1
Darstellungszeitraum ... ?
Vom - - bis: - -   Zeitraum: 30.11.2010 - 29.12.2010
Min/Max/Avg-Anzeige ... ?
Zeige MMA aktuell
Zeige MMA Monat
Zeige MMA alles
Zeige --A aktuell
Zeige --A Monat
Zeige --A alles
Keine MMA-Anzeige
MMA:
Average (ber die Originaldaten)
MMA-Basis: 30.11.2010 - 29.12.2010
Quicknavigation für Darstellung... ?
Tage:      1T, 2T, 3T, 5T -1T -2T -3T -5T +1T +2T +3T +5T
Wochen: 1W, 2W, 3W -1W -2W -3W +1W +2W +3W
Monate: 1M, 3M, 6M -1M -3M -6M +1M +3M +6M
Jahre:    1J, 3J, 5J, 10J -1J -3J -5J -10J +1J +3J +5J +10J
Nutze für die Darstellung ... ?
Originaldaten oder ...
Mittelwerte Minima Maxima auf...
Stundenbasis Tagesbasis Wochenbasis
Monatsbasis Jahresbasis      Datenbasis: Mittelwerte auf Stundenbasis
Darstellen als:
Statistik (Auto) Statistik J:M      Darstellung:
Zur Graphik,    zurück zur Übersicht aller Sensoren.
 
Tabellarische Datenbersicht: ?
 
Sensor: Nr:Datum:Temp:Abs-Feuchte:Windchill:Wind:
Aussen-T/F 1 30-11-2010 00:00:00 -1.78 C 3.81 g/m*3 -1.78 C 0 km/h
2 30-11-2010 01:00:00 -1.96 C 3.76 g/m*3 -1.96 C 0 km/h
3 30-11-2010 02:00:00 -1.68 C 3.84 g/m*3 -1.68 C 0 km/h
4 30-11-2010 03:00:00 -1.7 C 3.82 g/m*3 -1.7 C 0 km/h
5 30-11-2010 04:00:00 -2.36 C 3.62 g/m*3 -2.36 C 0 km/h
6 30-11-2010 05:00:00 -2.4 C 3.62 g/m*3 -2.4 C 0 km/h
7 30-11-2010 06:00:00 -2.26 C 3.66 g/m*3 -2.26 C 0 km/h
8 30-11-2010 07:00:00 -2.28 C 3.66 g/m*3 -2.28 C 0 km/h
9 30-11-2010 08:00:00 -2.08 C 3.66 g/m*3 -2.08 C 0 km/h
10 30-11-2010 09:00:00 -2 C 3.58 g/m*3 -2 C 0 km/h
11 30-11-2010 10:00:00 -1.82 C 3.51 g/m*3 -1.82 C 0 km/h
12 30-11-2010 11:00:00 -1.5 C 3.44 g/m*3 -1.5 C 0 km/h
13 30-11-2010 12:00:00 -1.3 C 3.28 g/m*3 -1.3 C 0 km/h
14 30-11-2010 13:00:00 -1.08 C 3.25 g/m*3 -1.08 C 0 km/h
15 30-11-2010 14:00:00 -1.32 C 3.2 g/m*3 -1.32 C 0 km/h
16 30-11-2010 15:00:00 -1.48 C 3.23 g/m*3 -1.48 C 0 km/h
17 30-11-2010 16:00:00 -1.5 C 3.23 g/m*3 -1.5 C 0 km/h
18 30-11-2010 17:00:00 -1.92 C 3.21 g/m*3 -1.92 C 0 km/h
19 30-11-2010 18:00:00 -2.1 C 3.18 g/m*3 -2.1 C 0 km/h
20 30-11-2010 19:00:00 -2.1 C 3.17 g/m*3 -2.1 C 0 km/h
21 30-11-2010 20:00:00 -2.26 C 3.11 g/m*3 -2.26 C 0 km/h
22 30-11-2010 21:00:00 -2.4 C 3.05 g/m*3 -2.4 C 0 km/h
23 30-11-2010 22:00:00 -2.58 C 2.94 g/m*3 -2.58 C 0 km/h
24 30-11-2010 23:00:00 -2.76 C 2.83 g/m*3 -2.76 C 0 km/h
25 01-12-2010 00:00:00 -3 C 2.76 g/m*3 -3 C 0 km/h
Sensor: Nr:Datum:Temp:Abs-Feuchte:Windchill:Wind:
Aussen-T/F 26 01-12-2010 01:00:00 -3.3 C 2.67 g/m*3 -3.3 C 0 km/h
27 01-12-2010 02:00:00 -3.88 C 2.51 g/m*3 -3.88 C 0 km/h
28 01-12-2010 03:00:00 -4.34 C 2.36 g/m*3 -4.34 C 0 km/h
29 01-12-2010 04:00:00 -5 C 2.23 g/m*3 -5 C 0 km/h
30 01-12-2010 05:00:00 -5.4 C 2.18 g/m*3 -5.4 C 0 km/h
31 01-12-2010 06:00:00 -5.56 C 2.14 g/m*3 -5.56 C 0 km/h
32 01-12-2010 07:00:00 -5.9 C 2.05 g/m*3 -5.9 C 0 km/h
33 01-12-2010 08:00:00 -6.26 C 1.95 g/m*3 -6.26 C 0 km/h
34 01-12-2010 09:00:00 -5.96 C 1.92 g/m*3 -5.96 C 0 km/h
35 01-12-2010 10:00:00 -5.54 C 1.95 g/m*3 -5.54 C 0 km/h
36 01-12-2010 11:00:00 -5.48 C 1.97 g/m*3 -5.48 C 0 km/h
37 01-12-2010 12:00:00 -5.82 C 1.93 g/m*3 -5.82 C 0 km/h
38 01-12-2010 13:00:00 -6.1 C 1.85 g/m*3 -6.1 C 0 km/h
39 01-12-2010 14:00:00 -6.18 C 1.79 g/m*3 -6.18 C 0 km/h
40 01-12-2010 15:00:00 -6.28 C 1.78 g/m*3 -6.28 C 0 km/h
41 01-12-2010 16:00:00 -6.58 C 1.75 g/m*3 -6.58 C 0 km/h
42 01-12-2010 17:00:00 -6.58 C 1.8 g/m*3 -6.58 C 0 km/h
43 01-12-2010 18:00:00 -6.54 C 1.82 g/m*3 -6.54 C 0 km/h
44 01-12-2010 19:00:00 -6.58 C 1.81 g/m*3 -6.58 C 0 km/h
45 01-12-2010 20:00:00 -6.64 C 1.77 g/m*3 -6.64 C 0 km/h
46 01-12-2010 21:00:00 -6.74 C 1.74 g/m*3 -6.74 C 0 km/h
47 01-12-2010 22:00:00 -6.86 C 1.73 g/m*3 -6.86 C 0 km/h
48 01-12-2010 23:00:00 -7.06 C 1.77 g/m*3 -7.06 C 0 km/h
49 02-12-2010 00:00:00 -7.14 C 1.81 g/m*3 -7.14 C 0 km/h
50 02-12-2010 01:00:00 -7.12 C 1.79 g/m*3 -7.12 C 0 km/h
Sensor: Nr:Datum:Temp:Abs-Feuchte:Windchill:Wind:
Aussen-T/F 51 02-12-2010 02:00:00 -7.28 C 1.71 g/m*3 -7.28 C 0 km/h
52 02-12-2010 03:00:00 -7.32 C 1.74 g/m*3 -7.32 C 0 km/h
53 02-12-2010 04:00:00 -7.5 C 1.78 g/m*3 -7.5 C 0 km/h
54 02-12-2010 05:00:00 -7.64 C 1.79 g/m*3 -7.64 C 0 km/h
55 02-12-2010 06:00:00 -7.76 C 1.84 g/m*3 -7.76 C 0 km/h
56 02-12-2010 07:00:00 -7.72 C 1.89 g/m*3 -7.72 C 0 km/h
57 02-12-2010 08:00:00 -7.7 C 1.87 g/m*3 -7.7 C 0 km/h
58 02-12-2010 09:00:00 -7.1 C 1.96 g/m*3 -7.1 C 0 km/h
59 02-12-2010 10:00:00 -6.14 C 1.99 g/m*3 -6.14 C 0 km/h
60 02-12-2010 11:00:00 -5.62 C 2.03 g/m*3 -5.62 C 0 km/h
61 02-12-2010 12:00:00 -6.08 C 2.05 g/m*3 -6.08 C 0 km/h
62 02-12-2010 13:00:00 -5.3 C 2.15 g/m*3 -5.3 C 0 km/h
63 02-12-2010 14:00:00 -5.6 C 2.16 g/m*3 -5.6 C 0 km/h
64 02-12-2010 15:00:00 -4.74 C 2.28 g/m*3 -4.74 C 0 km/h
65 02-12-2010 16:00:00 -5.12 C 2.3 g/m*3 -5.12 C 0 km/h
66 02-12-2010 17:00:00 -7.36 C 2.12 g/m*3 -7.36 C 0 km/h
67 02-12-2010 18:00:00 -8.02 C 2.2 g/m*3 -8.02 C 0 km/h
68 02-12-2010 19:00:00 -8.42 C 2.16 g/m*3 -8.42 C 0 km/h
69 02-12-2010 20:00:00 -8.04 C 2.25 g/m*3 -8.04 C 0 km/h
70 02-12-2010 21:00:00 -7.54 C 2.33 g/m*3 -7.54 C 0 km/h
71 02-12-2010 22:00:00 -8.54 C 2.13 g/m*3 -8.54 C 0 km/h
72 02-12-2010 23:00:00 -7.96 C 2.23 g/m*3 -7.96 C 0 km/h
73 03-12-2010 00:00:00 -9.88 C 1.86 g/m*3 -9.88 C 0 km/h
74 03-12-2010 01:00:00 -9.66 C 1.91 g/m*3 -9.66 C 0 km/h
75 03-12-2010 02:00:00 -9.12 C 2 g/m*3 -9.12 C 0 km/h
Sensor: Nr:Datum:Temp:Abs-Feuchte:Windchill:Wind:
Aussen-T/F 76 03-12-2010 03:00:00 -8.78 C 2.04 g/m*3 -8.78 C 0 km/h
77 03-12-2010 04:00:00 -8.06 C 2.15 g/m*3 -8.06 C 0 km/h
78 03-12-2010 05:00:00 -8.68 C 2.03 g/m*3 -8.68 C 0 km/h
79 03-12-2010 06:00:00 -9.48 C 1.91 g/m*3 -9.48 C 0 km/h
80 03-12-2010 07:00:00 -8.92 C 2.03 g/m*3 -8.92 C 0 km/h
81 03-12-2010 08:00:00 -9.92 C 1.85 g/m*3 -9.92 C 0 km/h
82 03-12-2010 09:00:00 -9.8 C 1.85 g/m*3 -9.8 C 0 km/h
83 03-12-2010 10:00:00 -8.1 C 2.05 g/m*3 -8.1 C 0 km/h
84 03-12-2010 11:00:00 -6.32 C 2.23 g/m*3 -6.32 C 0 km/h
85 03-12-2010 12:00:00 -5.16 C 2.28 g/m*3 -5.16 C 0 km/h
86 03-12-2010 13:00:00 -4.74 C 2.32 g/m*3 -4.74 C 0 km/h
87 03-12-2010 14:00:00 -4.26 C 2.38 g/m*3 -4.26 C 0 km/h
88 03-12-2010 15:00:00 -4.68 C 2.4 g/m*3 -4.68 C 0 km/h
89 03-12-2010 16:00:00 -6.18 C 2.37 g/m*3 -6.18 C 0 km/h
90 03-12-2010 17:00:00 -6.98 C 2.34 g/m*3 -6.98 C 0 km/h
91 03-12-2010 18:00:00 -7.02 C 2.36 g/m*3 -7.02 C 0 km/h
92 03-12-2010 19:00:00 -5.74 C 2.63 g/m*3 -5.74 C 0 km/h
93 03-12-2010 20:00:00 -5.36 C 2.64 g/m*3 -5.36 C 0 km/h
94 03-12-2010 21:00:00 -5.72 C 2.55 g/m*3 -5.72 C 0 km/h
95 03-12-2010 22:00:00 -6.78 C 2.39 g/m*3 -6.78 C 0 km/h
96 03-12-2010 23:00:00 -7.92 C 2.24 g/m*3 -7.92 C 0 km/h
97 04-12-2010 00:00:00 -8.5 C 2.17 g/m*3 -8.5 C 0 km/h
98 04-12-2010 01:00:00 -9.1 C 2.06 g/m*3 -9.1 C 0 km/h
99 04-12-2010 02:00:00 -9.26 C 2.02 g/m*3 -9.26 C 0 km/h
100 04-12-2010 03:00:00 -9.94 C 1.9 g/m*3 -9.94 C 0 km/h
Sensor: Nr:Datum:Temp:Abs-Feuchte:Windchill:Wind:
Aussen-T/F 101 04-12-2010 04:00:00 -7.96 C 2.24 g/m*3 -7.96 C 0 km/h
102 04-12-2010 05:00:00 -5.52 C 2.67 g/m*3 -5.52 C 0 km/h
103 04-12-2010 06:00:00 -4.94 C 2.59 g/m*3 -4.94 C 0 km/h
104 04-12-2010 07:00:00 -5.14 C 2.58 g/m*3 -5.14 C 0 km/h
105 04-12-2010 08:00:00 -3.94 C 2.67 g/m*3 -3.94 C 0 km/h
106 04-12-2010 09:00:00 -3.1 C 2.58 g/m*3 -3.1 C 0 km/h
107 04-12-2010 10:00:00 -2.12 C 2.68 g/m*3 -2.12 C 0 km/h
108 04-12-2010 11:00:00 -1.38 C 2.45 g/m*3 -1.38 C 0 km/h
109 04-12-2010 12:00:00 -0.86 C 2.46 g/m*3 -0.86 C 0 km/h
110 04-12-2010 13:00:00 -1.4 C 2.41 g/m*3 -1.4 C 0 km/h
111 04-12-2010 14:00:00 -1 C 2.47 g/m*3 -1 C 0 km/h
112 04-12-2010 15:00:00 -0.92 C 2.52 g/m*3 -0.92 C 0 km/h
113 04-12-2010 16:00:00 -1.22 C 2.64 g/m*3 -1.22 C 0 km/h
114 04-12-2010 17:00:00 -1.08 C 2.76 g/m*3 -1.08 C 0 km/h
115 04-12-2010 18:00:00 -0.9 C 2.79 g/m*3 -0.9 C 0 km/h
116 04-12-2010 19:00:00 -0.92 C 2.79 g/m*3 -0.92 C 0 km/h
117 04-12-2010 20:00:00 -0.96 C 2.87 g/m*3 -0.96 C 0 km/h
118 04-12-2010 21:00:00 -1.1 C 3.13 g/m*3 -1.1 C 0 km/h
119 04-12-2010 22:00:00 -1.18 C 3.46 g/m*3 -1.18 C 0 km/h
120 04-12-2010 23:00:00 -1.12 C 3.51 g/m*3 -1.12 C 0 km/h
121 05-12-2010 00:00:00 -0.5 C 3.48 g/m*3 -0.5 C 0 km/h
122 05-12-2010 01:00:00 0.12 C 3.31 g/m*3 0.12 C 0 km/h
123 05-12-2010 02:00:00 0.02 C 3.49 g/m*3 0.02 C 0 km/h
124 05-12-2010 03:00:00 0.12 C 3.53 g/m*3 0.12 C 0 km/h
125 05-12-2010 04:00:00 0.12 C 3.58 g/m*3 0.12 C 0 km/h
Sensor: Nr:Datum:Temp:Abs-Feuchte:Windchill:Wind:
Aussen-T/F 126 05-12-2010 05:00:00 0.22 C 3.25 g/m*3 0.22 C 0 km/h
127 05-12-2010 06:00:00 0.22 C 3.02 g/m*3 0.22 C 0 km/h
128 05-12-2010 07:00:00 -0.08 C 2.91 g/m*3 -0.08 C 0 km/h
129 05-12-2010 08:00:00 -0.32 C 2.9 g/m*3 -0.32 C 0 km/h
130 05-12-2010 09:00:00 0.02 C 2.96 g/m*3 0.02 C 0 km/h
131 05-12-2010 10:00:00 1.68 C 2.83 g/m*3 1.68 C 0 km/h
132 05-12-2010 11:00:00 2.54 C 2.77 g/m*3 2.54 C 0 km/h
133 05-12-2010 12:00:00 3.1 C 2.67 g/m*3 3.1 C 0 km/h
134 05-12-2010 13:00:00 3.4 C 2.63 g/m*3 3.4 C 0 km/h
135 05-12-2010 14:00:00 3.24 C 2.6 g/m*3 3.24 C 0 km/h
136 05-12-2010 15:00:00 2.22 C 3.05 g/m*3 2.22 C 0 km/h
137 05-12-2010 16:00:00 1.24 C 3.28 g/m*3 1.24 C 0 km/h
138 05-12-2010 17:00:00 1.38 C 3.4 g/m*3 1.38 C 0 km/h
139 05-12-2010 18:00:00 0.88 C 3.81 g/m*3 0.88 C 0 km/h
140 05-12-2010 19:00:00 0.86 C 3.97 g/m*3 0.86 C 0 km/h
141 05-12-2010 20:00:00 0.62 C 4.08 g/m*3 0.62 C 0 km/h
142 05-12-2010 21:00:00 0.34 C 4.27 g/m*3 0.34 C 0 km/h
143 05-12-2010 22:00:00 0.36 C 4.35 g/m*3 0.36 C 0 km/h
144 05-12-2010 23:00:00 0.2 C 4.33 g/m*3 0.2 C 0 km/h
145 06-12-2010 00:00:00 0.12 C 4.35 g/m*3 0.12 C 0 km/h
146 06-12-2010 01:00:00 0.12 C 4.38 g/m*3 0.12 C 0 km/h
147 06-12-2010 02:00:00 0.1 C 4.39 g/m*3 0.1 C 0 km/h
148 06-12-2010 03:00:00 0.1 C 4.35 g/m*3 0.1 C 0 km/h
149 06-12-2010 04:00:00 0.14 C 4.38 g/m*3 0.14 C 0 km/h
150 06-12-2010 05:00:00 0.04 C 4.33 g/m*3 0.04 C 0 km/h
Sensor: Nr:Datum:Temp:Abs-Feuchte:Windchill:Wind:
Aussen-T/F 151 06-12-2010 06:00:00 0.02 C 4.37 g/m*3 0.02 C 0 km/h
152 06-12-2010 07:00:00 0 C 4.34 g/m*3 0 C 0 km/h
153 06-12-2010 08:00:00 0.06 C 4.31 g/m*3 0.06 C 0 km/h
154 06-12-2010 09:00:00 0.84 C 4.37 g/m*3 0.84 C 0 km/h
155 06-12-2010 10:00:00 1.38 C 4.04 g/m*3 1.38 C 0 km/h
156 06-12-2010 11:00:00 1.88 C 3.94 g/m*3 1.88 C 0 km/h
157 06-12-2010 12:00:00 2.4 C 3.76 g/m*3 2.4 C 0 km/h
158 06-12-2010 13:00:00 2.54 C 3.68 g/m*3 2.54 C 0 km/h
159 06-12-2010 14:00:00 1.9 C 3.59 g/m*3 1.9 C 0 km/h
160 06-12-2010 15:00:00 0.96 C 3.65 g/m*3 0.96 C 0 km/h
161 06-12-2010 16:00:00 -0.26 C 3.69 g/m*3 -0.26 C 0 km/h
162 06-12-2010 17:00:00 -0.68 C 3.73 g/m*3 -0.68 C 0 km/h
163 06-12-2010 18:00:00 -0.9 C 3.76 g/m*3 -0.9 C 0 km/h
164 06-12-2010 19:00:00 -0.84 C 3.75 g/m*3 -0.84 C 0 km/h
165 06-12-2010 20:00:00 -1.14 C 3.67 g/m*3 -1.14 C 0 km/h
166 06-12-2010 21:00:00 -1.275 C 3.64 g/m*3 -1.27 C 0 km/h
167 06-12-2010 22:00:00 -1.24 C 3.68 g/m*3 -1.24 C 0 km/h
168 06-12-2010 23:00:00 -0.68 C 3.74 g/m*3 -0.68 C 0 km/h
169 07-12-2010 00:00:00 -1.06 C 3.6 g/m*3 -1.06 C 0 km/h
170 07-12-2010 01:00:00 -1.16 C 3.68 g/m*3 -1.16 C 0 km/h
171 07-12-2010 02:00:00 -0.56 C 3.77 g/m*3 -0.56 C 0 km/h
172 07-12-2010 03:00:00 -0.56 C 3.73 g/m*3 -0.56 C 0 km/h
173 07-12-2010 04:00:00 -0.74 C 3.7 g/m*3 -0.74 C 0 km/h
174 07-12-2010 05:00:00 -0.94 C 3.68 g/m*3 -0.94 C 0 km/h
175 07-12-2010 06:00:00 -0.78 C 3.68 g/m*3 -0.78 C 0 km/h
Sensor: Nr:Datum:Temp:Abs-Feuchte:Windchill:Wind:
Aussen-T/F 176 07-12-2010 07:00:00 -1 C 3.57 g/m*3 -1 C 0 km/h
177 07-12-2010 08:00:00 -0.84 C 3.6 g/m*3 -0.84 C 0 km/h
178 07-12-2010 09:00:00 -0.4 C 3.61 g/m*3 -0.4 C 0 km/h
179 07-12-2010 10:00:00 0.18 C 3.6 g/m*3 0.18 C 0 km/h
180 07-12-2010 11:00:00 0.56 C 3.61 g/m*3 0.56 C 0 km/h
181 07-12-2010 12:00:00 1.12 C 3.63 g/m*3 1.12 C 0 km/h
182 07-12-2010 13:00:00 1.44 C 3.61 g/m*3 1.44 C 0 km/h
183 07-12-2010 14:00:00 1.06 C 3.67 g/m*3 1.06 C 0 km/h
184 07-12-2010 15:00:00 0.4 C 3.81 g/m*3 0.4 C 0 km/h
185 07-12-2010 16:00:00 -0.22 C 4.06 g/m*3 -0.22 C 0 km/h
186 07-12-2010 17:00:00 -0.3 C 4.2 g/m*3 -0.3 C 0 km/h
187 07-12-2010 18:00:00 -0.26 C 4.26 g/m*3 -0.26 C 0 km/h
188 07-12-2010 19:00:00 -0.2 C 4.31 g/m*3 -0.2 C 0 km/h
189 07-12-2010 20:00:00 -0.16 C 4.36 g/m*3 -0.16 C 0 km/h
190 07-12-2010 21:00:00 -0.2 C 4.36 g/m*3 -0.2 C 0 km/h
191 07-12-2010 22:00:00 -0.18 C 4.4 g/m*3 -0.18 C 0 km/h
192 07-12-2010 23:00:00 -0.2 C 4.4 g/m*3 -0.2 C 0 km/h
193 08-12-2010 00:00:00 -0.2 C 4.4 g/m*3 -0.2 C 0 km/h
194 08-12-2010 01:00:00 -0.2 C 4.4 g/m*3 -0.2 C 0 km/h
195 08-12-2010 02:00:00 -0.16 C 4.41 g/m*3 -0.16 C 0 km/h
196 08-12-2010 03:00:00 -0.18 C 4.4 g/m*3 -0.18 C 0 km/h
197 08-12-2010 04:00:00 -0.08 C 4.43 g/m*3 -0.08 C 0 km/h
198 08-12-2010 05:00:00 -0.08 C 4.46 g/m*3 -0.08 C 0 km/h
199 08-12-2010 06:00:00 -0.06 C 4.49 g/m*3 -0.06 C 0 km/h
200 08-12-2010 07:00:00 -0.02 C 4.5 g/m*3 -0.02 C 0 km/h
Sensor: Nr:Datum:Temp:Abs-Feuchte:Windchill:Wind:
Aussen-T/F 201 08-12-2010 08:00:00 0 C 4.51 g/m*3 0 C 0 km/h
202 08-12-2010 09:00:00 0.08 C 4.53 g/m*3 0.08 C 0 km/h
203 08-12-2010 10:00:00 0.18 C 4.56 g/m*3 0.18 C 0 km/h
204 08-12-2010 11:00:00 0.34 C 4.63 g/m*3 0.34 C 0 km/h
205 08-12-2010 12:00:00 0.56 C 4.67 g/m*3 0.56 C 0 km/h
206 08-12-2010 13:00:00 0.62 C 4.58 g/m*3 0.62 C 0 km/h
207 08-12-2010 14:00:00 0.42 C 4.44 g/m*3 0.42 C 0 km/h
208 08-12-2010 15:00:00 -0.08 C 4.29 g/m*3 -0.08 C 0 km/h
209 08-12-2010 16:00:00 -0.3 C 4.26 g/m*3 -0.3 C 0 km/h
210 08-12-2010 17:00:00 -0.36 C 4.24 g/m*3 -0.36 C 0 km/h
211 08-12-2010 18:00:00 -0.74 C 4.1 g/m*3 -0.74 C 0 km/h
212 08-12-2010 19:00:00 -0.92 C 4.05 g/m*3 -0.92 C 0 km/h
213 08-12-2010 20:00:00 -1.06 C 4.02 g/m*3 -1.06 C 0 km/h
214 08-12-2010 21:00:00 -1.24 C 3.94 g/m*3 -1.24 C 0 km/h
215 08-12-2010 22:00:00 -1.44 C 3.82 g/m*3 -1.44 C 0 km/h
216 08-12-2010 23:00:00 -1.3 C 3.74 g/m*3 -1.3 C 0 km/h
217 09-12-2010 00:00:00 -1.32 C 3.64 g/m*3 -1.32 C 0 km/h
218 09-12-2010 01:00:00 -1.52 C 3.56 g/m*3 -1.52 C 0 km/h
219 09-12-2010 02:00:00 -1.74 C 3.55 g/m*3 -1.74 C 0 km/h
220 09-12-2010 03:00:00 -1.7 C 3.69 g/m*3 -1.7 C 0 km/h
221 09-12-2010 04:00:00 -1.62 C 3.72 g/m*3 -1.62 C 0 km/h
222 09-12-2010 05:00:00 -1.04 C 3.84 g/m*3 -1.04 C 0 km/h
223 09-12-2010 06:00:00 -0.42 C 3.9 g/m*3 -0.42 C 0 km/h
224 09-12-2010 07:00:00 -0.28 C 3.95 g/m*3 -0.28 C 0 km/h
225 09-12-2010 08:00:00 -0.38 C 3.91 g/m*3 -0.38 C 0 km/h
Sensor: Nr:Datum:Temp:Abs-Feuchte:Windchill:Wind:
Aussen-T/F 226 09-12-2010 09:00:00 -0.08 C 3.93 g/m*3 -0.08 C 0 km/h
227 09-12-2010 10:00:00 0.32 C 4 g/m*3 0.32 C 0 km/h
228 09-12-2010 11:00:00 0.8 C 4.06 g/m*3 0.8 C 0 km/h
229 09-12-2010 12:00:00 2.18 C 4.07 g/m*3 2.18 C 0 km/h
230 09-12-2010 13:00:00 1.74 C 4.11 g/m*3 1.74 C 0 km/h
231 09-12-2010 14:00:00 2.12 C 3.92 g/m*3 2.12 C 0 km/h
232 09-12-2010 15:00:00 1.84 C 3.75 g/m*3 1.84 C 0 km/h
233 09-12-2010 16:00:00 1.52 C 3.66 g/m*3 1.52 C 0 km/h
234 09-12-2010 17:00:00 1.5 C 3.89 g/m*3 1.5 C 0 km/h
235 09-12-2010 18:00:00 1.68 C 4.03 g/m*3 1.68 C 0 km/h
236 09-12-2010 19:00:00 2.16 C 3.9 g/m*3 2.16 C 0 km/h
237 09-12-2010 20:00:00 2.44 C 4 g/m*3 2.44 C 0 km/h
238 09-12-2010 21:00:00 2.58 C 4.06 g/m*3 2.58 C 0 km/h
239 09-12-2010 22:00:00 2.44 C 4.16 g/m*3 2.44 C 0 km/h
240 09-12-2010 23:00:00 1.5 C 4.43 g/m*3 1.5 C 0 km/h
241 10-12-2010 00:00:00 1.9 C 4.42 g/m*3 1.9 C 0 km/h
242 10-12-2010 01:00:00 2.04 C 4.36 g/m*3 2.04 C 0 km/h
243 10-12-2010 02:00:00 1.7 C 4.26 g/m*3 1.7 C 0 km/h
244 10-12-2010 03:00:00 1.24 C 4.52 g/m*3 1.24 C 0 km/h
245 10-12-2010 04:00:00 1.7 C 4.79 g/m*3 1.7 C 0 km/h
246 10-12-2010 05:00:00 2.52 C 4.87 g/m*3 2.52 C 0 km/h
247 10-12-2010 06:00:00 1.84 C 4.73 g/m*3 1.84 C 0 km/h
248 10-12-2010 07:00:00 0.76 C 4.53 g/m*3 0.76 C 0 km/h
249 10-12-2010 08:00:00 -0.32 C 4.28 g/m*3 -0.32 C 0 km/h
250 10-12-2010 09:00:00 -0.4 C 4.3 g/m*3 -0.4 C 0 km/h
Sensor: Nr:Datum:Temp:Abs-Feuchte:Windchill:Wind:
Aussen-T/F 251 10-12-2010 10:00:00 0.06 C 4.45 g/m*3 0.06 C 0 km/h
252 10-12-2010 11:00:00 1.38 C 4.82 g/m*3 1.38 C 0 km/h
253 10-12-2010 12:00:00 2.24 C 4.95 g/m*3 2.24 C 0 km/h
254 10-12-2010 13:00:00 2.96 C 4.9 g/m*3 2.96 C 0 km/h
255 10-12-2010 14:00:00 2.82 C 4.65 g/m*3 2.82 C 0 km/h
256 10-12-2010 15:00:00 1.78 C 4.64 g/m*3 1.78 C 0 km/h
257 10-12-2010 16:00:00 1.54 C 4.8 g/m*3 1.54 C 0 km/h
258 10-12-2010 17:00:00 1.84 C 4.95 g/m*3 1.84 C 0 km/h
259 10-12-2010 18:00:00 1.86 C 4.93 g/m*3 1.86 C 0 km/h
260 10-12-2010 19:00:00 2.28 C 4.97 g/m*3 2.28 C 0 km/h
261 10-12-2010 20:00:00 2.6 C 4.93 g/m*3 2.6 C 0 km/h
262 10-12-2010 21:00:00 2.5 C 4.85 g/m*3 2.5 C 0 km/h
263 10-12-2010 22:00:00 2.52 C 4.87 g/m*3 2.52 C 0 km/h
264 10-12-2010 23:00:00 2.24 C 4.86 g/m*3 2.24 C 0 km/h
265 11-12-2010 00:00:00 2.18 C 4.97 g/m*3 2.18 C 0 km/h
266 11-12-2010 01:00:00 2.46 C 5.08 g/m*3 2.46 C 0 km/h
267 11-12-2010 02:00:00 2.72 C 5.13 g/m*3 2.72 C 0 km/h
268 11-12-2010 03:00:00 2.54 C 5.1 g/m*3 2.54 C 0 km/h
269 11-12-2010 04:00:00 3.26 C 5.24 g/m*3 3.26 C 0 km/h
270 11-12-2010 05:00:00 3.86 C 5.19 g/m*3 3.86 C 0 km/h
271 11-12-2010 06:00:00 3.36 C 5.15 g/m*3 3.36 C 0 km/h
272 11-12-2010 07:00:00 4.14 C 5.21 g/m*3 4.14 C 0 km/h
273 11-12-2010 08:00:00 4.86 C 5.01 g/m*3 4.86 C 0 km/h
274 11-12-2010 09:00:00 4.16 C 5.04 g/m*3 4.16 C 0 km/h
275 11-12-2010 10:00:00 3.9 C 5.38 g/m*3 3.9 C 0 km/h
Sensor: Nr:Datum:Temp:Abs-Feuchte:Windchill:Wind:
Aussen-T/F 276 11-12-2010 11:00:00 4.3 C 5.37 g/m*3 4.3 C 0 km/h
277 11-12-2010 12:00:00 4.54 C 5.56 g/m*3 4.54 C 0 km/h
278 11-12-2010 13:00:00 4.86 C 5.39 g/m*3 4.86 C 0 km/h
279 11-12-2010 14:00:00 4.9 C 5.31 g/m*3 4.9 C 0 km/h
280 11-12-2010 15:00:00 5.06 C 5.18 g/m*3 5.06 C 0 km/h
281 11-12-2010 16:00:00 4.9 C 5.24 g/m*3 4.9 C 0 km/h
282 11-12-2010 17:00:00 5.16 C 5.22 g/m*3 5.16 C 0 km/h
283 11-12-2010 18:00:00 4.22 C 5.21 g/m*3 4.22 C 0 km/h
284 11-12-2010 19:00:00 4.26 C 5.2 g/m*3 4.26 C 0 km/h
285 11-12-2010 20:00:00 4.82 C 5.01 g/m*3 4.82 C 0 km/h
286 11-12-2010 21:00:00 4.4 C 5.04 g/m*3 4.4 C 0 km/h
287 11-12-2010 22:00:00 4.3 C 5.03 g/m*3 4.3 C 0 km/h
288 11-12-2010 23:00:00 4.66 C 4.89 g/m*3 4.66 C 0 km/h
289 12-12-2010 00:00:00 4.26 C 4.97 g/m*3 4.26 C 0 km/h
290 12-12-2010 01:00:00 4.84 C 4.84 g/m*3 4.84 C 0 km/h
291 12-12-2010 02:00:00 4.82 C 4.58 g/m*3 4.82 C 0 km/h
292 12-12-2010 03:00:00 4.2 C 4.66 g/m*3 4.2 C 0 km/h
293 12-12-2010 04:00:00 3.68 C 5.18 g/m*3 3.68 C 0 km/h
294 12-12-2010 05:00:00 3.44 C 5.11 g/m*3 3.44 C 0 km/h
295 12-12-2010 06:00:00 3.04 C 5.07 g/m*3 3.04 C 0 km/h
296 12-12-2010 07:00:00 3.86 C 4.93 g/m*3 3.86 C 0 km/h
297 12-12-2010 08:00:00 3.62 C 4.87 g/m*3 3.62 C 0 km/h
298 12-12-2010 09:00:00 3.7 C 4.96 g/m*3 3.7 C 0 km/h
299 12-12-2010 10:00:00 3.86 C 5.03 g/m*3 3.86 C 0 km/h
300 12-12-2010 11:00:00 4.12 C 5.14 g/m*3 4.12 C 0 km/h
Sensor: Nr:Datum:Temp:Abs-Feuchte:Windchill:Wind:
Aussen-T/F 301 12-12-2010 12:00:00 4.5 C 5.34 g/m*3 4.5 C 0 km/h
302 12-12-2010 13:00:00 4.82 C 5.17 g/m*3 4.82 C 0 km/h
303 12-12-2010 14:00:00 3.46 C 4.95 g/m*3 3.46 C 0 km/h
304 12-12-2010 15:00:00 3.1 C 5.21 g/m*3 3.1 C 0 km/h
305 12-12-2010 16:00:00 2.7 C 5.12 g/m*3 2.7 C 0 km/h
306 12-12-2010 17:00:00 2.48 C 4.62 g/m*3 2.48 C 0 km/h
307 12-12-2010 18:00:00 1.86 C 4.15 g/m*3 1.86 C 0 km/h
308 12-12-2010 19:00:00 1.38 C 3.91 g/m*3 1.38 C 0 km/h
309 12-12-2010 20:00:00 1.18 C 3.56 g/m*3 1.18 C 0 km/h
310 12-12-2010 21:00:00 0.76 C 3.35 g/m*3 0.76 C 0 km/h
311 12-12-2010 22:00:00 0.4 C 3.18 g/m*3 0.4 C 0 km/h
312 12-12-2010 23:00:00 -0.04 C 2.73 g/m*3 -0.04 C 0 km/h
313 13-12-2010 00:00:00 -0.52 C 2.5 g/m*3 -0.52 C 0 km/h
314 13-12-2010 01:00:00 -0.84 C 2.45 g/m*3 -0.84 C 0 km/h
315 13-12-2010 02:00:00 -2.28 C 2.3 g/m*3 -2.28 C 0 km/h
316 13-12-2010 03:00:00 -3.5 C 2.27 g/m*3 -3.5 C 0 km/h
317 13-12-2010 04:00:00 -4.2 C 2.29 g/m*3 -4.2 C 0 km/h
318 13-12-2010 05:00:00 -5.8 C 2.22 g/m*3 -5.8 C 0 km/h
319 13-12-2010 06:00:00 -6.94 C 2.21 g/m*3 -6.94 C 0 km/h
320 13-12-2010 07:00:00 -7.2 C 2.22 g/m*3 -7.2 C 0 km/h
321 13-12-2010 08:00:00 -7.18 C 2.27 g/m*3 -7.18 C 0 km/h
322 13-12-2010 09:00:00 -7.12 C 2.29 g/m*3 -7.12 C 0 km/h
323 13-12-2010 10:00:00 -6.62 C 2.4 g/m*3 -6.62 C 0 km/h
324 13-12-2010 11:00:00 -4 C 2.63 g/m*3 -4 C 0 km/h
325 13-12-2010 12:00:00 -2.78 C 2.52 g/m*3 -2.78 C 0 km/h
Sensor: Nr:Datum:Temp:Abs-Feuchte:Windchill:Wind:
Aussen-T/F 326 13-12-2010 13:00:00 -2.32 C 2.5 g/m*3 -2.32 C 0 km/h
327 13-12-2010 14:00:00 -2.2 C 2.39 g/m*3 -2.2 C 0 km/h
328 13-12-2010 15:00:00 -3.66 C 2.47 g/m*3 -3.66 C 0 km/h
329 13-12-2010 16:00:00 -4.98 C 2.58 g/m*3 -4.98 C 0 km/h
330 13-12-2010 17:00:00 -5.88 C 2.5 g/m*3 -5.88 C 0 km/h
331 13-12-2010 18:00:00 -6.2 C 2.48 g/m*3 -6.2 C 0 km/h
332 13-12-2010 19:00:00 -5.44 C 2.72 g/m*3 -5.44 C 0 km/h
333 13-12-2010 20:00:00 -4.86 C 2.8 g/m*3 -4.86 C 0 km/h
334 13-12-2010 21:00:00 -4.22 C 2.82 g/m*3 -4.22 C 0 km/h
335 13-12-2010 22:00:00 -3.92 C 2.86 g/m*3 -3.92 C 0 km/h
336 13-12-2010 23:00:00 -4.1 C 3 g/m*3 -4.1 C 0 km/h
337 14-12-2010 00:00:00 -4.1 C 3.02 g/m*3 -4.1 C 0 km/h
338 14-12-2010 01:00:00 -4.06 C 3.03 g/m*3 -4.06 C 0 km/h
339 14-12-2010 02:00:00 -3.84 C 3.07 g/m*3 -3.84 C 0 km/h
340 14-12-2010 03:00:00 -3.66 C 3.11 g/m*3 -3.66 C 0 km/h
341 14-12-2010 04:00:00 -3.62 C 3.09 g/m*3 -3.62 C 0 km/h
342 14-12-2010 05:00:00 -3.8 C 3.04 g/m*3 -3.8 C 0 km/h
343 14-12-2010 06:00:00 -4.7 C 2.87 g/m*3 -4.7 C 0 km/h
344 14-12-2010 07:00:00 -6.22 C 2.59 g/m*3 -6.22 C 0 km/h
345 14-12-2010 08:00:00 -6.38 C 2.62 g/m*3 -6.38 C 0 km/h
346 14-12-2010 09:00:00 -6 C 2.69 g/m*3 -6 C 0 km/h
347 14-12-2010 10:00:00 -4.06 C 3 g/m*3 -4.06 C 0 km/h
348 14-12-2010 11:00:00 -3.24 C 2.75 g/m*3 -3.24 C 0 km/h
349 14-12-2010 12:00:00 -2.42 C 2.66 g/m*3 -2.42 C 0 km/h
350 14-12-2010 13:00:00 -2.2 C 2.64 g/m*3 -2.2 C 0 km/h
Sensor: Nr:Datum:Temp:Abs-Feuchte:Windchill:Wind:
Aussen-T/F 351 14-12-2010 14:00:00 -2.44 C 2.66 g/m*3 -2.44 C 0 km/h
352 14-12-2010 15:00:00 -2.76 C 2.7 g/m*3 -2.76 C 0 km/h
353 14-12-2010 16:00:00 -2.9 C 2.8 g/m*3 -2.9 C 0 km/h
354 14-12-2010 17:00:00 -2.98 C 2.91 g/m*3 -2.98 C 0 km/h
355 14-12-2010 18:00:00 -3.06 C 2.78 g/m*3 -3.06 C 0 km/h
356 14-12-2010 19:00:00 -2.82 C 2.84 g/m*3 -2.82 C 0 km/h
357 14-12-2010 20:00:00 -3.04 C 2.74 g/m*3 -3.04 C 0 km/h
358 14-12-2010 21:00:00 -3.12 C 2.64 g/m*3 -3.12 C 0 km/h
359 14-12-2010 22:00:00 -3.16 C 2.58 g/m*3 -3.16 C 0 km/h
360 14-12-2010 23:00:00 -3.22 C 2.51 g/m*3 -3.22 C 0 km/h
361 15-12-2010 00:00:00 -3.3 C 2.5 g/m*3 -3.3 C 0 km/h
362 15-12-2010 01:00:00 -3.26 C 2.57 g/m*3 -3.26 C 0 km/h
363 15-12-2010 02:00:00 -4.16 C 2.54 g/m*3 -4.16 C 0 km/h
364 15-12-2010 03:00:00 -4.9 C 2.5 g/m*3 -4.9 C 0 km/h
365 15-12-2010 04:00:00 -4.86 C 2.54 g/m*3 -4.86 C 0 km/h
366 15-12-2010 05:00:00 -4.72 C 2.63 g/m*3 -4.72 C 0 km/h
367 15-12-2010 06:00:00 -3.78 C 2.71 g/m*3 -3.78 C 0 km/h
368 15-12-2010 07:00:00 -3.42 C 2.81 g/m*3 -3.42 C 0 km/h
369 15-12-2010 08:00:00 -3.3 C 2.88 g/m*3 -3.3 C 0 km/h
370 15-12-2010 09:00:00 -2.56 C 3.02 g/m*3 -2.56 C 0 km/h
371 15-12-2010 10:00:00 -1.76 C 3.22 g/m*3 -1.76 C 0 km/h
372 15-12-2010 11:00:00 -0.68 C 3.51 g/m*3 -0.68 C 0 km/h
373 15-12-2010 12:00:00 -0.48 C 3.47 g/m*3 -0.48 C 0 km/h
374 15-12-2010 13:00:00 -0.38 C 3.56 g/m*3 -0.38 C 0 km/h
375 15-12-2010 14:00:00 -0.12 C 3.36 g/m*3 -0.12 C 0 km/h
Sensor: Nr:Datum:Temp:Abs-Feuchte:Windchill:Wind:
Aussen-T/F 376 15-12-2010 15:00:00 -1.44 C 2.8 g/m*3 -1.44 C 0 km/h
377 15-12-2010 16:00:00 -3.2 C 2.7 g/m*3 -3.2 C 0 km/h
378 15-12-2010 17:00:00 -4.34 C 2.74 g/m*3 -4.34 C 0 km/h
379 15-12-2010 18:00:00 -4.86 C 2.77 g/m*3 -4.86 C 0 km/h
380 15-12-2010 19:00:00 -4.42 C 2.86 g/m*3 -4.42 C 0 km/h
381 15-12-2010 20:00:00 -3.62 C 2.83 g/m*3 -3.62 C 0 km/h
382 15-12-2010 21:00:00 -3.18 C 2.77 g/m*3 -3.18 C 0 km/h
383 15-12-2010 22:00:00 -3.78 C 2.76 g/m*3 -3.78 C 0 km/h
384 15-12-2010 23:00:00 -4.54 C 2.76 g/m*3 -4.54 C 0 km/h
385 16-12-2010 00:00:00 -4.68 C 2.85 g/m*3 -4.68 C 0 km/h
386 16-12-2010 01:00:00 -4.84 C 2.87 g/m*3 -4.84 C 0 km/h
387 16-12-2010 02:00:00 -5.3 C 2.73 g/m*3 -5.3 C 0 km/h
388 16-12-2010 03:00:00 -5.36 C 2.75 g/m*3 -5.36 C 0 km/h
389 16-12-2010 04:00:00 -5.58 C 2.66 g/m*3 -5.58 C 0 km/h
390 16-12-2010 05:00:00 -6.4 C 2.41 g/m*3 -6.4 C 0 km/h
391 16-12-2010 06:00:00 -7.54 C 2.25 g/m*3 -7.54 C 0 km/h
392 16-12-2010 07:00:00 -8.28 C 2.11 g/m*3 -8.28 C 0 km/h
393 16-12-2010 08:00:00 -7.86 C 2.18 g/m*3 -7.86 C 0 km/h
394 16-12-2010 09:00:00 -6.6 C 2.26 g/m*3 -6.6 C 0 km/h
395 16-12-2010 10:00:00 -4.84 C 2.47 g/m*3 -4.84 C 0 km/h
396 16-12-2010 11:00:00 -3.42 C 2.65 g/m*3 -3.42 C 0 km/h
397 16-12-2010 12:00:00 -2.84 C 2.8 g/m*3 -2.84 C 0 km/h
398 16-12-2010 13:00:00 -2.12 C 2.99 g/m*3 -2.12 C 0 km/h
399 16-12-2010 14:00:00 -1.72 C 3.2 g/m*3 -1.72 C 0 km/h
400 16-12-2010 15:00:00 -1.4 C 3.45 g/m*3 -1.4 C 0 km/h
Sensor: Nr:Datum:Temp:Abs-Feuchte:Windchill:Wind:
Aussen-T/F 401 16-12-2010 16:00:00 -1.3 C 3.43 g/m*3 -1.3 C 0 km/h
402 16-12-2010 17:00:00 -1.26 C 3.47 g/m*3 -1.26 C 0 km/h
403 16-12-2010 18:00:00 -0.7 C 3.61 g/m*3 -0.7 C 0 km/h
404 16-12-2010 19:00:00 -0.28 C 3.67 g/m*3 -0.28 C 0 km/h
405 16-12-2010 20:00:00 0.02 C 3.69 g/m*3 0.02 C 0 km/h
406 16-12-2010 21:00:00 -0.12 C 3.79 g/m*3 -0.12 C 0 km/h
407 16-12-2010 22:00:00 -0.34 C 3.88 g/m*3 -0.34 C 0 km/h
408 16-12-2010 23:00:00 -0.46 C 3.84 g/m*3 -0.46 C 0 km/h
409 17-12-2010 00:00:00 -0.28 C 3.85 g/m*3 -0.28 C 0 km/h
410 17-12-2010 01:00:00 -0.34 C 3.88 g/m*3 -0.34 C 0 km/h
411 17-12-2010 02:00:00 -0.58 C 3.62 g/m*3 -0.58 C 0 km/h
412 17-12-2010 03:00:00 -1.2 C 3.36 g/m*3 -1.2 C 0 km/h
413 17-12-2010 04:00:00 -1.28 C 3.16 g/m*3 -1.28 C 0 km/h
414 17-12-2010 05:00:00 -1.62 C 3.26 g/m*3 -1.62 C 0 km/h
415 17-12-2010 06:00:00 -2.24 C 2.97 g/m*3 -2.24 C 0 km/h
416 17-12-2010 07:00:00 -2.28 C 2.65 g/m*3 -2.28 C 0 km/h
417 17-12-2010 08:00:00 -2.22 C 3 g/m*3 -2.22 C 0 km/h
418 17-12-2010 09:00:00 -1.92 C 3.01 g/m*3 -1.92 C 0 km/h
419 17-12-2010 10:00:00 -1.66 C 2.95 g/m*3 -1.66 C 0 km/h
420 17-12-2010 11:00:00 -1.2 C 2.74 g/m*3 -1.2 C 0 km/h
421 17-12-2010 12:00:00 -1.14 C 2.52 g/m*3 -1.14 C 0 km/h
422 17-12-2010 13:00:00 -1.22 C 2.43 g/m*3 -1.22 C 0 km/h
423 17-12-2010 14:00:00 -1.4 C 2.66 g/m*3 -1.4 C 0 km/h
424 17-12-2010 15:00:00 -1.82 C 2.98 g/m*3 -1.82 C 0 km/h
425 17-12-2010 16:00:00 -2.08 C 3 g/m*3 -2.08 C 0 km/h
Sensor: Nr:Datum:Temp:Abs-Feuchte:Windchill:Wind:
Aussen-T/F 426 17-12-2010 17:00:00 -4.06 C 2.8 g/m*3 -4.06 C 0 km/h
427 17-12-2010 18:00:00 -5.22 C 2.69 g/m*3 -5.22 C 0 km/h
428 17-12-2010 19:00:00 -6.48 C 2.51 g/m*3 -6.48 C 0 km/h
429 17-12-2010 20:00:00 -6.58 C 2.52 g/m*3 -6.58 C 0 km/h
430 17-12-2010 21:00:00 -6.94 C 2.44 g/m*3 -6.94 C 0 km/h
431 17-12-2010 22:00:00 -6.92 C 2.44 g/m*3 -6.92 C 0 km/h
432 17-12-2010 23:00:00 -5.9 C 2.66 g/m*3 -5.9 C 0 km/h
433 18-12-2010 00:00:00 -4.74 C 2.93 g/m*3 -4.74 C 0 km/h
434 18-12-2010 01:00:00 -4.44 C 2.9 g/m*3 -4.44 C 0 km/h
435 18-12-2010 02:00:00 -5.28 C 2.7 g/m*3 -5.28 C 0 km/h
436 18-12-2010 03:00:00 -4.36 C 2.87 g/m*3 -4.36 C 0 km/h
437 18-12-2010 04:00:00 -4.36 C 2.94 g/m*3 -4.36 C 0 km/h
438 18-12-2010 05:00:00 -4.44 C 2.98 g/m*3 -4.44 C 0 km/h
439 18-12-2010 06:00:00 -4.34 C 3.01 g/m*3 -4.34 C 0 km/h
440 18-12-2010 07:00:00 -5.26 C 2.81 g/m*3 -5.26 C 0 km/h
441 18-12-2010 08:00:00 -5.34 C 2.8 g/m*3 -5.34 C 0 km/h
442 18-12-2010 09:00:00 -4.84 C 2.73 g/m*3 -4.84 C 0 km/h
443 18-12-2010 10:00:00 -3.82 C 2.68 g/m*3 -3.82 C 0 km/h
444 18-12-2010 11:00:00 -3.48 C 2.59 g/m*3 -3.48 C 0 km/h
445 18-12-2010 12:00:00 -3.28 C 2.46 g/m*3 -3.28 C 0 km/h
446 18-12-2010 13:00:00 -2.96 C 2.36 g/m*3 -2.96 C 0 km/h
447 18-12-2010 14:00:00 -3.84 C 2.29 g/m*3 -3.84 C 0 km/h
448 18-12-2010 15:00:00 -5.48 C 2.31 g/m*3 -5.48 C 0 km/h
449 18-12-2010 16:00:00 -7.06 C 2.27 g/m*3 -7.06 C 0 km/h
450 18-12-2010 17:00:00 -7.56 C 2.29 g/m*3 -7.56 C 0 km/h
Sensor: Nr:Datum:Temp:Abs-Feuchte:Windchill:Wind:
Aussen-T/F 451 18-12-2010 18:00:00 -6.74 C 2.48 g/m*3 -6.74 C 0 km/h
452 18-12-2010 19:00:00 -5.34 C 2.79 g/m*3 -5.34 C 0 km/h
453 18-12-2010 20:00:00 -4.36 C 2.97 g/m*3 -4.36 C 0 km/h
454 18-12-2010 21:00:00 -3.98 C 3.05 g/m*3 -3.98 C 0 km/h
455 18-12-2010 22:00:00 -3.42 C 3.2 g/m*3 -3.42 C 0 km/h
456 18-12-2010 23:00:00 -3.08 C 3.28 g/m*3 -3.08 C 0 km/h
457 19-12-2010 00:00:00 -2.56 C 3.41 g/m*3 -2.56 C 0 km/h
458 19-12-2010 01:00:00 -2.44 C 3.53 g/m*3 -2.44 C 0 km/h
459 19-12-2010 02:00:00 -2.5 C 3.54 g/m*3 -2.5 C 0 km/h
460 19-12-2010 03:00:00 -2.7 C 3.49 g/m*3 -2.7 C 0 km/h
461 19-12-2010 04:00:00 -2.46 C 3.55 g/m*3 -2.46 C 0 km/h
462 19-12-2010 05:00:00 -1.02 C 3.67 g/m*3 -1.02 C 0 km/h
463 19-12-2010 06:00:00 -1.64 C 3.24 g/m*3 -1.64 C 0 km/h
464 19-12-2010 07:00:00 -2.58 C 3.19 g/m*3 -2.58 C 0 km/h
465 19-12-2010 08:00:00 -2.5 C 3.2 g/m*3 -2.5 C 0 km/h
466 19-12-2010 09:00:00 -2.04 C 3.37 g/m*3 -2.04 C 0 km/h
467 19-12-2010 10:00:00 -0.94 C 3.41 g/m*3 -0.94 C 0 km/h
468 19-12-2010 11:00:00 -0.38 C 3.56 g/m*3 -0.38 C 0 km/h
469 19-12-2010 12:00:00 0.3 C 3.6 g/m*3 0.3 C 0 km/h
470 19-12-2010 13:00:00 0.14 C 3.71 g/m*3 0.14 C 0 km/h
471 19-12-2010 14:00:00 -0.18 C 3.94 g/m*3 -0.18 C 0 km/h
472 19-12-2010 15:00:00 -0.4 C 4.08 g/m*3 -0.4 C 0 km/h
473 19-12-2010 16:00:00 -0.3 C 4.23 g/m*3 -0.3 C 0 km/h
474 19-12-2010 17:00:00 -0.2 C 4.33 g/m*3 -0.2 C 0 km/h
475 19-12-2010 18:00:00 -0.18 C 4.36 g/m*3 -0.18 C 0 km/h
Sensor: Nr:Datum:Temp:Abs-Feuchte:Windchill:Wind:
Aussen-T/F 476 19-12-2010 19:00:00 -0.04 C 4.45 g/m*3 -0.04 C 0 km/h
477 19-12-2010 20:00:00 0.08 C 4.49 g/m*3 0.08 C 0 km/h
478 19-12-2010 21:00:00 1.1 C 4.84 g/m*3 1.1 C 0 km/h
479 19-12-2010 22:00:00 1.92 C 5.06 g/m*3 1.92 C 0 km/h
480 19-12-2010 23:00:00 4.42 C 5.05 g/m*3 4.42 C 0 km/h
481 20-12-2010 00:00:00 4.02 C 4.62 g/m*3 4.02 C 0 km/h
482 20-12-2010 01:00:00 1.68 C 4.43 g/m*3 1.68 C 0 km/h
483 20-12-2010 02:00:00 0.42 C 3.7 g/m*3 0.42 C 0 km/h
484 20-12-2010 03:00:00 -0.08 C 3.63 g/m*3 -0.08 C 0 km/h
485 20-12-2010 04:00:00 -0.44 C 3.67 g/m*3 -0.44 C 0 km/h
486 20-12-2010 05:00:00 -1.02 C 3.56 g/m*3 -1.02 C 0 km/h
487 20-12-2010 06:00:00 -1.66 C 3.46 g/m*3 -1.66 C 0 km/h
488 20-12-2010 07:00:00 -2.6 C 3.38 g/m*3 -2.6 C 0 km/h
489 20-12-2010 08:00:00 -2.42 C 3.54 g/m*3 -2.42 C 0 km/h
490 20-12-2010 09:00:00 -1.8 C 3.59 g/m*3 -1.8 C 0 km/h
491 20-12-2010 10:00:00 -1.22 C 3.33 g/m*3 -1.22 C 0 km/h
492 20-12-2010 11:00:00 -0.8 C 3.28 g/m*3 -0.8 C 0 km/h
493 20-12-2010 12:00:00 -1.06 C 3.27 g/m*3 -1.06 C 0 km/h
494 20-12-2010 13:00:00 -0.92 C 3.28 g/m*3 -0.92 C 0 km/h
495 20-12-2010 14:00:00 -0.98 C 3.26 g/m*3 -0.98 C 0 km/h
496 20-12-2010 15:00:00 -1.08 C 3.26 g/m*3 -1.08 C 0 km/h
497 20-12-2010 16:00:00 -3.04 C 3.05 g/m*3 -3.04 C 0 km/h
498 20-12-2010 17:00:00 -3.52 C 3.23 g/m*3 -3.52 C 0 km/h
499 20-12-2010 18:00:00 -3.04 C 3.42 g/m*3 -3.04 C 0 km/h
500 20-12-2010 19:00:00 -3 C 3.45 g/m*3 -3 C 0 km/h
Sensor: Nr:Datum:Temp:Abs-Feuchte:Windchill:Wind:
Aussen-T/F 501 20-12-2010 20:00:00 -2.92 C 3.48 g/m*3 -2.92 C 0 km/h
502 20-12-2010 21:00:00 -3.64 C 3.26 g/m*3 -3.64 C 0 km/h
503 20-12-2010 22:00:00 -4.3 C 3.11 g/m*3 -4.3 C 0 km/h
504 20-12-2010 23:00:00 -3.46 C 3.37 g/m*3 -3.46 C 0 km/h
505 21-12-2010 00:00:00 -3.62 C 3.33 g/m*3 -3.62 C 0 km/h
506 21-12-2010 01:00:00 -2.88 C 3.53 g/m*3 -2.88 C 0 km/h
507 21-12-2010 02:00:00 -2.6 C 3.6 g/m*3 -2.6 C 0 km/h
508 21-12-2010 03:00:00 -2.54 C 3.57 g/m*3 -2.54 C 0 km/h
509 21-12-2010 04:00:00 -2.14 C 3.67 g/m*3 -2.14 C 0 km/h
510 21-12-2010 05:00:00 -1.88 C 3.76 g/m*3 -1.88 C 0 km/h
511 21-12-2010 06:00:00 -1.78 C 3.81 g/m*3 -1.78 C 0 km/h
512 21-12-2010 07:00:00 -1.7 C 3.83 g/m*3 -1.7 C 0 km/h
513 21-12-2010 08:00:00 -1.64 C 3.85 g/m*3 -1.64 C 0 km/h
514 21-12-2010 09:00:00 -1.24 C 3.91 g/m*3 -1.24 C 0 km/h
515 21-12-2010 10:00:00 -0.6 C 3.91 g/m*3 -0.6 C 0 km/h
516 21-12-2010 11:00:00 0.5 C 3.98 g/m*3 0.5 C 0 km/h
517 21-12-2010 12:00:00 1.14 C 3.97 g/m*3 1.14 C 0 km/h
518 21-12-2010 13:00:00 1.44 C 4.12 g/m*3 1.44 C 0 km/h
519 21-12-2010 14:00:00 1.24 C 4.06 g/m*3 1.24 C 0 km/h
520 21-12-2010 15:00:00 1.18 C 4.18 g/m*3 1.18 C 0 km/h
521 21-12-2010 16:00:00 0.58 C 4.2 g/m*3 0.58 C 0 km/h
522 21-12-2010 17:00:00 0.16 C 4.28 g/m*3 0.16 C 0 km/h
523 21-12-2010 18:00:00 0.18 C 4.38 g/m*3 0.18 C 0 km/h
524 21-12-2010 19:00:00 0.12 C 4.4 g/m*3 0.12 C 0 km/h
525 21-12-2010 20:00:00 0.12 C 4.4 g/m*3 0.12 C 0 km/h
Sensor: Nr:Datum:Temp:Abs-Feuchte:Windchill:Wind:
Aussen-T/F 526 21-12-2010 21:00:00 0.12 C 4.45 g/m*3 0.12 C 0 km/h
527 21-12-2010 22:00:00 0.15 C 4.45 g/m*3 0.15 C 0 km/h
528 21-12-2010 23:00:00 0.12 C 4.45 g/m*3 0.12 C 0 km/h
529 22-12-2010 00:00:00 0.1 C 4.48 g/m*3 0.1 C 0 km/h
530 22-12-2010 01:00:00 0.16 C 4.51 g/m*3 0.16 C 0 km/h
531 22-12-2010 02:00:00 0.2 C 4.52 g/m*3 0.2 C 0 km/h
532 22-12-2010 03:00:00 0.16 C 4.51 g/m*3 0.16 C 0 km/h
533 22-12-2010 04:00:00 0.28 C 4.54 g/m*3 0.28 C 0 km/h
534 22-12-2010 05:00:00 0.3 C 4.55 g/m*3 0.3 C 0 km/h
535 22-12-2010 06:00:00 0.3 C 4.55 g/m*3 0.3 C 0 km/h
536 22-12-2010 07:00:00 0.3 C 4.57 g/m*3 0.3 C 0 km/h
537 22-12-2010 08:00:00 0.34 C 4.61 g/m*3 0.34 C 0 km/h
538 22-12-2010 09:00:00 0.7 C 4.73 g/m*3 0.7 C 0 km/h
539 22-12-2010 10:00:00 1.38 C 4.9 g/m*3 1.38 C 0 km/h
540 22-12-2010 11:00:00 2.3 C 5.02 g/m*3 2.3 C 0 km/h
541 22-12-2010 12:00:00 2.76 C 4.89 g/m*3 2.76 C 0 km/h
542 22-12-2010 13:00:00 2.38 C 4.73 g/m*3 2.38 C 0 km/h
543 22-12-2010 14:00:00 2.4 C 4.76 g/m*3 2.4 C 0 km/h
544 22-12-2010 15:00:00 1.66 C 4.59 g/m*3 1.66 C 0 km/h
545 22-12-2010 16:00:00 1.16 C 4.6 g/m*3 1.16 C 0 km/h
546 22-12-2010 17:00:00 0.8 C 4.6 g/m*3 0.8 C 0 km/h
547 22-12-2010 18:00:00 0.7 C 4.63 g/m*3 0.7 C 0 km/h
548 22-12-2010 19:00:00 0.78 C 4.7 g/m*3 0.78 C 0 km/h
549 22-12-2010 20:00:00 0.78 C 4.7 g/m*3 0.78 C 0 km/h
550 22-12-2010 21:00:00 0.8 C 4.71 g/m*3 0.8 C 0 km/h
Sensor: Nr:Datum:Temp:Abs-Feuchte:Windchill:Wind:
Aussen-T/F 551 22-12-2010 22:00:00 0.7 C 4.68 g/m*3 0.7 C 0 km/h
552 22-12-2010 23:00:00 0.7 C 4.68 g/m*3 0.7 C 0 km/h
553 23-12-2010 00:00:00 0.76 C 4.74 g/m*3 0.76 C 0 km/h
554 23-12-2010 01:00:00 0.7 C 4.73 g/m*3 0.7 C 0 km/h
555 23-12-2010 02:00:00 0.7 C 4.73 g/m*3 0.7 C 0 km/h
556 23-12-2010 03:00:00 0.7 C 4.73 g/m*3 0.7 C 0 km/h
557 23-12-2010 04:00:00 0.66 C 4.72 g/m*3 0.66 C 0 km/h
558 23-12-2010 05:00:00 0.48 C 4.66 g/m*3 0.48 C 0 km/h
559 23-12-2010 06:00:00 0.34 C 4.61 g/m*3 0.34 C 0 km/h
560 23-12-2010 07:00:00 0 C 4.51 g/m*3 0 C 0 km/h
561 23-12-2010 08:00:00 -0.32 C 4.39 g/m*3 -0.32 C 0 km/h
562 23-12-2010 09:00:00 -0.5 C 4.31 g/m*3 -0.5 C 0 km/h
563 23-12-2010 10:00:00 -0.54 C 4.27 g/m*3 -0.54 C 0 km/h
564 23-12-2010 11:00:00 -0.58 C 4.19 g/m*3 -0.58 C 0 km/h
565 23-12-2010 12:00:00 -0.68 C 4.06 g/m*3 -0.68 C 0 km/h
566 23-12-2010 13:00:00 -0.66 C 4 g/m*3 -0.66 C 0 km/h
567 23-12-2010 14:00:00 -0.62 C 3.99 g/m*3 -0.62 C 0 km/h
568 23-12-2010 15:00:00 -0.86 C 3.93 g/m*3 -0.86 C 0 km/h
569 23-12-2010 16:00:00 -0.9 C 3.96 g/m*3 -0.9 C 0 km/h
570 23-12-2010 17:00:00 -1.02 C 3.93 g/m*3 -1.02 C 0 km/h
571 23-12-2010 18:00:00 -1.14 C 3.89 g/m*3 -1.14 C 0 km/h
572 23-12-2010 19:00:00 -1.26 C 3.84 g/m*3 -1.26 C 0 km/h
573 23-12-2010 20:00:00 -1.26 C 3.84 g/m*3 -1.26 C 0 km/h
574 23-12-2010 21:00:00 -1.1 C 3.86 g/m*3 -1.1 C 0 km/h
575 23-12-2010 22:00:00 -0.94 C 3.92 g/m*3 -0.94 C 0 km/h
Sensor: Nr:Datum:Temp:Abs-Feuchte:Windchill:Wind:
Aussen-T/F 576 23-12-2010 23:00:00 -0.8 C 3.98 g/m*3 -0.8 C 0 km/h
577 24-12-2010 00:00:00 -0.9 C 3.91 g/m*3 -0.9 C 0 km/h
578 24-12-2010 01:00:00 -0.74 C 3.98 g/m*3 -0.74 C 0 km/h
579 24-12-2010 02:00:00 -0.5 C 4.03 g/m*3 -0.5 C 0 km/h
580 24-12-2010 03:00:00 -0.48 C 4.03 g/m*3 -0.48 C 0 km/h
581 24-12-2010 04:00:00 -0.5 C 4.03 g/m*3 -0.5 C 0 km/h
582 24-12-2010 05:00:00 -0.74 C 3.91 g/m*3 -0.74 C 0 km/h
583 24-12-2010 06:00:00 -0.96 C 3.79 g/m*3 -0.96 C 0 km/h
584 24-12-2010 07:00:00 -1.2 C 3.64 g/m*3 -1.2 C 0 km/h
585 24-12-2010 08:00:00 -1.48 C 3.64 g/m*3 -1.48 C 0 km/h
586 24-12-2010 09:00:00 -1.7 C 3.66 g/m*3 -1.7 C 0 km/h
587 24-12-2010 10:00:00 -1.54 C 3.68 g/m*3 -1.54 C 0 km/h
588 24-12-2010 11:00:00 -1.32 C 3.67 g/m*3 -1.32 C 0 km/h
589 24-12-2010 12:00:00 -1.34 C 3.58 g/m*3 -1.34 C 0 km/h
590 24-12-2010 13:00:00 -1.38 C 3.52 g/m*3 -1.38 C 0 km/h
591 24-12-2010 14:00:00 -1.4 C 3.52 g/m*3 -1.4 C 0 km/h
592 24-12-2010 15:00:00 -1.84 C 3.46 g/m*3 -1.84 C 0 km/h
593 24-12-2010 16:00:00 -2.42 C 3.35 g/m*3 -2.42 C 0 km/h
594 24-12-2010 17:00:00 -2.56 C 3.22 g/m*3 -2.56 C 0 km/h
595 24-12-2010 18:00:00 -2.8 C 3.23 g/m*3 -2.8 C 0 km/h
596 24-12-2010 19:00:00 -2.94 C 3.13 g/m*3 -2.94 C 0 km/h
597 24-12-2010 20:00:00 -3.02 C 3.11 g/m*3 -3.02 C 0 km/h
598 24-12-2010 21:00:00 -3.23333 C 3.06 g/m*3 -3.23 C 0 km/h
599 24-12-2010 22:00:00 -3.56 C 3.02 g/m*3 -3.56 C 0 km/h
600 24-12-2010 23:00:00 -3.74 C 2.98 g/m*3 -3.74 C 0 km/h
Sensor: Nr:Datum:Temp:Abs-Feuchte:Windchill:Wind:
Aussen-T/F 601 25-12-2010 00:00:00 -3.82 C 2.94 g/m*3 -3.82 C 0 km/h
602 25-12-2010 01:00:00 -3.92 C 2.88 g/m*3 -3.92 C 0 km/h
603 25-12-2010 02:00:00 -4.08 C 2.87 g/m*3 -4.08 C 0 km/h
604 25-12-2010 03:00:00 -4.16 C 2.81 g/m*3 -4.16 C 0 km/h
605 25-12-2010 04:00:00 -4.26 C 2.68 g/m*3 -4.26 C 0 km/h
606 25-12-2010 05:00:00 -4.46 C 2.58 g/m*3 -4.46 C 0 km/h
607 25-12-2010 06:00:00 -4.62 C 2.51 g/m*3 -4.62 C 0 km/h
608 25-12-2010 07:00:00 -4.72 C 2.45 g/m*3 -4.72 C 0 km/h
609 25-12-2010 08:00:00 -4.8 C 2.47 g/m*3 -4.8 C 0 km/h
610 25-12-2010 09:00:00 -4.82 C 2.44 g/m*3 -4.82 C 0 km/h
611 25-12-2010 10:00:00 -4.58 C 2.36 g/m*3 -4.58 C 0 km/h
612 25-12-2010 11:00:00 -4.5 C 2.18 g/m*3 -4.5 C 0 km/h
613 25-12-2010 12:00:00 -4.98 C 2.07 g/m*3 -4.98 C 0 km/h
614 25-12-2010 13:00:00 -4.72 C 2.18 g/m*3 -4.72 C 0 km/h
615 25-12-2010 14:00:00 -4.92 C 2.1 g/m*3 -4.92 C 0 km/h
616 25-12-2010 15:00:00 -5.54 C 2.09 g/m*3 -5.54 C 0 km/h
617 25-12-2010 16:00:00 -6.82 C 2.12 g/m*3 -6.82 C 0 km/h
618 25-12-2010 17:00:00 -7.52 C 2.13 g/m*3 -7.52 C 0 km/h
619 25-12-2010 18:00:00 -7.46 C 2.17 g/m*3 -7.46 C 0 km/h
620 25-12-2010 19:00:00 -7.4 C 2.17 g/m*3 -7.4 C 0 km/h
621 25-12-2010 20:00:00 -8.34 C 2.11 g/m*3 -8.34 C 0 km/h
622 25-12-2010 21:00:00 -7.4 C 2.32 g/m*3 -7.4 C 0 km/h
623 25-12-2010 22:00:00 -6.8 C 2.31 g/m*3 -6.8 C 0 km/h
624 25-12-2010 23:00:00 -6.82 C 2.18 g/m*3 -6.82 C 0 km/h
625 26-12-2010 00:00:00 -7.08 C 2.12 g/m*3 -7.08 C 0 km/h
Sensor: Nr:Datum:Temp:Abs-Feuchte:Windchill:Wind:
Aussen-T/F 626 26-12-2010 01:00:00 -8 C 1.99 g/m*3 -8 C 0 km/h
627 26-12-2010 02:00:00 -8.78 C 1.88 g/m*3 -8.78 C 0 km/h
628 26-12-2010 03:00:00 -9.04 C 1.82 g/m*3 -9.04 C 0 km/h
629 26-12-2010 04:00:00 -9.04 C 1.85 g/m*3 -9.04 C 0 km/h
630 26-12-2010 05:00:00 -8.44 C 1.94 g/m*3 -8.44 C 0 km/h
631 26-12-2010 06:00:00 -7.24 C 2.11 g/m*3 -7.24 C 0 km/h
632 26-12-2010 07:00:00 -6.34 C 2.24 g/m*3 -6.34 C 0 km/h
633 26-12-2010 08:00:00 -5.84 C 2.36 g/m*3 -5.84 C 0 km/h
634 26-12-2010 09:00:00 -4.88 C 2.6 g/m*3 -4.88 C 0 km/h
635 26-12-2010 10:00:00 -4.24 C 2.68 g/m*3 -4.24 C 0 km/h
636 26-12-2010 11:00:00 -3.52 C 2.69 g/m*3 -3.52 C 0 km/h
637 26-12-2010 12:00:00 -3.14 C 2.78 g/m*3 -3.14 C 0 km/h
638 26-12-2010 13:00:00 -2.72 C 2.85 g/m*3 -2.72 C 0 km/h
639 26-12-2010 14:00:00 -2.66 C 3 g/m*3 -2.66 C 0 km/h
640 26-12-2010 15:00:00 -2.72 C 3.13 g/m*3 -2.72 C 0 km/h
641 26-12-2010 16:00:00 -2.86 C 3.16 g/m*3 -2.86 C 0 km/h
642 26-12-2010 17:00:00 -2.82 C 3.17 g/m*3 -2.82 C 0 km/h
643 26-12-2010 18:00:00 -2.9 C 3.17 g/m*3 -2.9 C 0 km/h
644 26-12-2010 19:00:00 -2.72 C 3.18 g/m*3 -2.72 C 0 km/h
645 26-12-2010 20:00:00 -3.04 C 3.16 g/m*3 -3.04 C 0 km/h
646 26-12-2010 21:00:00 -3.3 C 3.08 g/m*3 -3.3 C 0 km/h
647 26-12-2010 22:00:00 -3.04 C 3.13 g/m*3 -3.04 C 0 km/h
648 26-12-2010 23:00:00 -2.72 C 3.18 g/m*3 -2.72 C 0 km/h
649 27-12-2010 00:00:00 -2.64 C 3.22 g/m*3 -2.64 C 0 km/h
650 27-12-2010 01:00:00 -1.92 C 3.31 g/m*3 -1.92 C 0 km/h
Sensor: Nr:Datum:Temp:Abs-Feuchte:Windchill:Wind:
Aussen-T/F 651 27-12-2010 02:00:00 -1.6 C 3.35 g/m*3 -1.6 C 0 km/h
652 27-12-2010 03:00:00 -1.38 C 3.41 g/m*3 -1.38 C 0 km/h
653 27-12-2010 04:00:00 -1.3 C 3.36 g/m*3 -1.3 C 0 km/h
654 27-12-2010 05:00:00 -1.32 C 3.37 g/m*3 -1.32 C 0 km/h
655 27-12-2010 06:00:00 -1.44 C 3.38 g/m*3 -1.44 C 0 km/h
656 27-12-2010 07:00:00 -1.62 C 3.33 g/m*3 -1.62 C 0 km/h
657 27-12-2010 08:00:00 -1.86 C 3.29 g/m*3 -1.86 C 0 km/h
658 27-12-2010 09:00:00 -1.78 C 3.24 g/m*3 -1.78 C 0 km/h
659 27-12-2010 10:00:00 -1.42 C 3.27 g/m*3 -1.42 C 0 km/h
660 27-12-2010 11:00:00 -1.16 C 3.26 g/m*3 -1.16 C 0 km/h
661 27-12-2010 12:00:00 -1.02 C 3.22 g/m*3 -1.02 C 0 km/h
662 27-12-2010 13:00:00 -0.88 C 3.29 g/m*3 -0.88 C 0 km/h
663 27-12-2010 14:00:00 -1.04 C 3.27 g/m*3 -1.04 C 0 km/h
664 27-12-2010 15:00:00 -1.3 C 3.33 g/m*3 -1.3 C 0 km/h
665 27-12-2010 16:00:00 -2.3 C 3.25 g/m*3 -2.3 C 0 km/h
666 27-12-2010 17:00:00 -3.16 C 3.25 g/m*3 -3.16 C 0 km/h
667 27-12-2010 18:00:00 -3.18 C 3.34 g/m*3 -3.18 C 0 km/h
668 27-12-2010 19:00:00 -3.74 C 3.21 g/m*3 -3.74 C 0 km/h
669 27-12-2010 20:00:00 -4.3 C 3.12 g/m*3 -4.3 C 0 km/h
670 27-12-2010 21:00:00 -4.4 C 3.1 g/m*3 -4.4 C 0 km/h
671 27-12-2010 22:00:00 -4.14 C 3.16 g/m*3 -4.14 C 0 km/h
672 27-12-2010 23:00:00 -4.34 C 3.11 g/m*3 -4.34 C 0 km/h
673 28-12-2010 00:00:00 -4.46 C 3.08 g/m*3 -4.46 C 0 km/h
674 28-12-2010 01:00:00 -4.3 C 3.12 g/m*3 -4.3 C 0 km/h
675 28-12-2010 02:00:00 -4.16 C 3.15 g/m*3 -4.16 C 0 km/h
Sensor: Nr:Datum:Temp:Abs-Feuchte:Windchill:Wind:
Aussen-T/F 676 28-12-2010 03:00:00 -4.36 C 3.08 g/m*3 -4.36 C 0 km/h
677 28-12-2010 04:00:00 -4.16 C 3.15 g/m*3 -4.16 C 0 km/h
678 28-12-2010 05:00:00 -3.78 C 3.23 g/m*3 -3.78 C 0 km/h
679 28-12-2010 06:00:00 -3.74 C 3.24 g/m*3 -3.74 C 0 km/h
680 28-12-2010 07:00:00 -3.72 C 3.22 g/m*3 -3.72 C 0 km/h
681 28-12-2010 08:00:00 -3.56 C 3.25 g/m*3 -3.56 C 0 km/h
682 28-12-2010 09:00:00 -2.68 C 3.44 g/m*3 -2.68 C 0 km/h
683 28-12-2010 10:00:00 -1.12 C 3.61 g/m*3 -1.12 C 0 km/h
684 28-12-2010 11:00:00 -0.54 C 3.46 g/m*3 -0.54 C 0 km/h
685 28-12-2010 12:00:00 0.3 C 3.31 g/m*3 0.3 C 0 km/h
686 28-12-2010 13:00:00 0.36 C 3.32 g/m*3 0.36 C 0 km/h
687 28-12-2010 14:00:00 0 C 3.33 g/m*3 0 C 0 km/h
688 28-12-2010 15:00:00 -0.54 C 3.42 g/m*3 -0.54 C 0 km/h
689 28-12-2010 16:00:00 -0.68 C 3.39 g/m*3 -0.68 C 0 km/h
690 28-12-2010 17:00:00 -0.7 C 3.42 g/m*3 -0.7 C 0 km/h
691 28-12-2010 18:00:00 -0.88 C 3.38 g/m*3 -0.88 C 0 km/h
692 28-12-2010 19:00:00 -1.2 C 3.45 g/m*3 -1.2 C 0 km/h
693 28-12-2010 20:00:00 -1.4 C 3.43 g/m*3 -1.4 C 0 km/h
694 28-12-2010 21:00:00 -1.86 C 3.4 g/m*3 -1.86 C 0 km/h
695 28-12-2010 22:00:00 -1.275 C 3.59 g/m*3 -1.27 C 0 km/h
696 28-12-2010 23:00:00 -1.28 C 3.58 g/m*3 -1.28 C 0 km/h
697 29-12-2010 00:00:00 -1.32 C 3.56 g/m*3 -1.32 C 0 km/h
698 29-12-2010 01:00:00 -1.3 C 3.62 g/m*3 -1.3 C 0 km/h
699 29-12-2010 02:00:00 -1.3 C 3.64 g/m*3 -1.3 C 0 km/h
700 29-12-2010 03:00:00 -1.22 C 3.68 g/m*3 -1.22 C 0 km/h
Sensor: Nr:Datum:Temp:Abs-Feuchte:Windchill:Wind:
Aussen-T/F 701 29-12-2010 04:00:00 -1.28 C 3.66 g/m*3 -1.28 C 0 km/h
702 29-12-2010 05:00:00 -1.3 C 3.67 g/m*3 -1.3 C 0 km/h
703 29-12-2010 06:00:00 -1.2 C 3.73 g/m*3 -1.2 C 0 km/h
704 29-12-2010 07:00:00 -1.1 C 3.79 g/m*3 -1.1 C 0 km/h
705 29-12-2010 08:00:00 -1.1 C 3.83 g/m*3 -1.1 C 0 km/h
706 29-12-2010 09:00:00 -0.74 C 3.88 g/m*3 -0.74 C 0 km/h
707 29-12-2010 10:00:00 0.14 C 3.75 g/m*3 0.14 C 0 km/h
708 29-12-2010 11:00:00 0.58 C 3.6 g/m*3 0.58 C 0 km/h
709 29-12-2010 12:00:00 0.88 C 3.58 g/m*3 0.88 C 0 km/h
710 29-12-2010 13:00:00 1.34 C 3.61 g/m*3 1.34 C 0 km/h
711 29-12-2010 14:00:00 1.76 C 3.66 g/m*3 1.76 C 0 km/h
712 29-12-2010 15:00:00 1.18 C 3.73 g/m*3 1.18 C 0 km/h
713 29-12-2010 16:00:00 0.62 C 3.85 g/m*3 0.62 C 0 km/h
714 29-12-2010 17:00:00 0.28 C 3.85 g/m*3 0.28 C 0 km/h
715 29-12-2010 18:00:00 0.14 C 3.89 g/m*3 0.14 C 0 km/h
716 29-12-2010 19:00:00 0.06 C 3.97 g/m*3 0.06 C 0 km/h
717 29-12-2010 20:00:00 -0.04 C 3.96 g/m*3 -0.04 C 0 km/h
718 29-12-2010 21:00:00 -0.18 C 3.92 g/m*3 -0.18 C 0 km/h
719 29-12-2010 22:00:00 -0.32 C 3.84 g/m*3 -0.32 C 0 km/h
720 29-12-2010 23:00:00 -0.7 C 3.79 g/m*3 -0.7 C 0 km/h

Maximal/Minimal-Werte vom 30.11.2010 - 29.12.2010

Sensor Min Max Avg
Temp
(Aussen-T/F)
-10.7 °C
03-12-2010  00:44:04
5.5 °C
11-12-2010  17:27:01
-1.89 °C
Abs-Feuchte
(Aussen-T/F)
1.71 g/m*3
02-12-2010  02:00:00
5.56 g/m*3
11-12-2010  12:00:00
3.4 g/m*3
Windchill
(Aussen-T/F)
-9.94 C
04-12-2010  03:00:00
5.16 C
11-12-2010  17:00:00
-1.88 C

Die Daten stammen von einer Davis Vantage Pro 2 Wetter-Station und werden unter Linux mit der Software wview2wettercgi und aufbereitet. Alle Angaben erfolgen ohne Gewähr für ihre Vollständigkeit oder Richtigkeit.
Kontakt: Rainer Krienke krienke@uni-koblenz.de . Meine Webseiten an der Uni Koblenz oder privat.
Version: $Revision: 0.78 $